Buoy 13569

sailwx.info

Track history (hours):
 
Tides and Currents Weather Stations Pressure Air Temp Water Temp Dewpoint Dewpoint Depression Visibility Wind Speed Wind Dir Waves Ship Positions

Drifting buoy 13569

Last reported at 2015-Jan-27 22:00 UTC. Time now 2015-Jan-28 04:19 UTC.
Position N 31°55' W 029°03'.

Barometer 1035.8 mb
Water temperature 19.3 ° C

Date/timePositionNaut miles runAvg speedWind from/ knotsBaromVisibWave heightAir tempDewpointWater temp
2015-Jan-27 22:00N 31°55' W 029°03'0 0.0 1035.8 19.3
2015-Jan-27 21:00N 31°55' W 029°03'1 0.8 1035.4 19.4
2015-Jan-27 20:00N 31°55' W 029°02'0 0.1 1034.8 19.4
2015-Jan-27 19:00N 31°55' W 029°02'0 0.0 1034.4 19.4
2015-Jan-27 18:00N 31°55' W 029°02'1 0.7 1034.4 19.4
2015-Jan-27 17:00N 31°54' W 029°02'0 0.0 1034.9 19.4
2015-Jan-27 15:00N 31°54' W 029°02'2 0.5 1035.3 19.4
2015-Jan-27 12:00N 31°54' W 029°00'0 0.4 1036.3 19.4
2015-Jan-27 11:00N 31°54' W 029°01'0 0.0 1035.5 19.4
2015-Jan-27 07:00N 31°54' W 029°01'0 0.0 1034.0 19.4
2015-Jan-27 05:00N 31°54' W 029°01'0 0.0 1034.1 19.4
2015-Jan-27 04:00N 31°54' W 029°01'1 0.2 1034.4 19.4
2015-Jan-26 23:00N 31°54' W 028°60'0 0.0 1033.9 19.4
2015-Jan-26 22:00N 31°54' W 028°60'1 0.3 1033.5 19.4
2015-Jan-26 19:00N 31°54' W 028°58'1 1.3 1031.6 19.5
2015-Jan-26 18:00N 31°53' W 028°60'0 0.3 1031.4 19.5
2015-Jan-26 17:00N 31°53' W 028°59'1 0.3 1031.1 19.5
2015-Jan-26 15:00N 31°53' W 028°59'0 0.0 1031.1 19.5
2015-Jan-26 14:00N 31°53' W 028°59'1 0.2 1031.9 19.5
2015-Jan-26 11:00N 31°53' W 028°59'1 0.2 1032.0 19.4
2015-Jan-26 08:00N 31°52' W 028°59'0 0.0 1030.6 19.5
2015-Jan-26 07:00N 31°52' W 028°59'0 0.1 1030.3 19.5
2015-Jan-26 06:00N 31°52' W 028°59'2 1.0 1030.0 19.5
2015-Jan-26 04:00N 31°50' W 028°58'0 0.0 1030.0 19.5
2015-Jan-26 03:00N 31°50' W 028°58'0 0.1 1030.0 19.5
2015-Jan-25 20:00N 31°50' W 028°57'0 0.4 1028.3 19.6
2015-Jan-25 19:00N 31°50' W 028°57'0 0.0 1027.6 19.6
2015-Jan-25 18:00N 31°50' W 028°57'1 1.0 1027.3 19.7
2015-Jan-25 17:00N 31°49' W 028°56'1 0.1 1027.1 19.7
2015-Jan-25 12:00N 31°49' W 028°56'1 1.1 1029.0 19.6
2015-Jan-25 11:00N 31°50' W 028°55'0 0.0 1028.5 19.6
2015-Jan-25 10:00N 31°50' W 028°55'0 0.1 1028.0 19.6
2015-Jan-25 07:00N 31°50' W 028°55'0 0.1 1027.0 19.6
2015-Jan-25 06:00N 31°50' W 028°55'0 0.1 1026.5 19.6
2015-Jan-25 05:00N 31°50' W 028°55'1 0.9 1026.5 19.6
2015-Jan-25 04:00N 31°50' W 028°54'1 0.9 1026.9 19.6
2015-Jan-25 03:00N 31°50' W 028°55'1 0.9 1027.0 19.6
2015-Jan-25 02:00N 31°50' W 028°54'1 0.3 1027.3 19.6
2015-Jan-24 23:00N 31°51' W 028°53'1 0.7 1028.3 19.6
2015-Jan-24 22:00N 31°52' W 028°53'0 0.2 1028.4 19.6
2015-Jan-24 20:00N 31°52' W 028°53'0 0.0 1027.3 19.6
2015-Jan-24 19:00N 31°52' W 028°53'0 0.3 1026.9 19.6
2015-Jan-24 18:00N 31°52' W 028°53'0 0.0 1026.6 19.6
2015-Jan-24 17:00N 31°52' W 028°53'1 0.7 1026.5 19.7
2015-Jan-24 16:00N 31°52' W 028°52'1 0.2 1026.5 19.7
2015-Jan-24 12:00N 31°53' W 028°51'0 0.3 1029.1 19.6
2015-Jan-24 11:00N 31°53' W 028°52'2 0.4 1029.0 19.6
2015-Jan-24 07:00N 31°54' W 028°50'1 0.9 1028.3 19.4
2015-Jan-24 06:00N 31°54' W 028°49'2 0.8 1028.1 19.4
2015-Jan-24 04:00N 31°53' W 028°47'0 0.0 1028.8 19.4
2015-Jan-24 03:00N 31°53' W 028°47'0 0.0 1029.0 19.4
2015-Jan-24 02:00N 31°53' W 028°47'0 0.0 1029.8 19.4
2015-Jan-24 00:00N 31°53' W 028°47'1 0.5 1030.6 19.4
2015-Jan-23 23:00N 31°54' W 028°46'1 0.6 1030.9 19.5
2015-Jan-23 22:00N 31°54' W 028°46'1 0.2 1030.9 19.5
2015-Jan-23 16:00N 31°54' W 028°44'2 0.4 1029.8 19.5
2015-Jan-23 12:00N 31°53' W 028°42'0 0.0 1032.3 19.4
2015-Jan-23 11:00N 31°53' W 028°42'2 0.6 1032.3 19.4
2015-Jan-23 08:00N 31°54' W 028°40'0 0.2 1031.5 19.4
2015-Jan-23 06:00N 31°54' W 028°40'0 0.0 1031.0 19.4
2015-Jan-23 05:00N 31°54' W 028°40'0 0.1 1031.1 19.4
2015-Jan-23 04:00N 31°55' W 028°40'1 1.4 1031.6 19.4
2015-Jan-23 03:00N 31°55' W 028°39'0 0.0 1031.9 19.4
2015-Jan-23 00:00N 31°55' W 028°39'1 0.5 1032.4 19.5
2015-Jan-22 22:00N 31°55' W 028°38'0 0.1 1032.3 19.5
2015-Jan-22 19:00N 31°55' W 028°38'0 0.0 1031.0 19.5
2015-Jan-22 18:00N 31°55' W 028°38'0 0.1 1030.8 19.5
2015-Jan-22 16:00N 31°55' W 028°37'1 0.3 1030.9 19.5
2015-Jan-22 14:00N 31°55' W 028°37'2 0.6 1032.0 19.5
2015-Jan-22 11:00N 31°54' W 028°35'0 0.0 1032.6 19.4
2015-Jan-22 08:00N 31°54' W 028°35'0 0.0 1031.9 19.4
2015-Jan-22 07:00N 31°54' W 028°35'0 0.1 1031.5 19.4
2015-Jan-22 06:00N 31°54' W 028°35'0 0.4 1031.6 19.4
2015-Jan-22 05:00N 31°55' W 028°35'1 0.6 1031.5 19.4
2015-Jan-22 03:00N 31°54' W 028°34'1 1.1 1031.4 19.4
2015-Jan-22 02:00N 31°54' W 028°35'2 0.7 1031.3 19.4
2015-Jan-21 23:00N 31°53' W 028°33'0 0.0 1031.5 19.4
2015-Jan-21 21:00N 31°53' W 028°33'0 0.2 1030.8 19.5
2015-Jan-21 19:00N 31°53' W 028°32'0 0.4 1029.8 19.6
2015-Jan-21 18:00N 31°53' W 028°32'0 0.0 1029.5 19.6
2015-Jan-21 16:00N 31°53' W 028°32'0 0.4 1029.1 19.6
2015-Jan-21 15:00N 31°53' W 028°33'2 0.4 1029.3 19.6
2015-Jan-21 11:00N 31°53' W 028°31'1 0.1 1030.5 19.6
2015-Jan-21 07:00N 31°53' W 028°30'1 1.0 1029.0 19.6
2015-Jan-21 06:00N 31°54' W 028°30'1 1.3 1028.5 19.6
2015-Jan-21 05:00N 31°55' W 028°31'0 0.0 1028.5 19.6
2015-Jan-21 03:00N 31°55' W 028°31'1 0.1 1028.9 19.6
2015-Jan-20 23:00N 31°56' W 028°30'0 0.3 1029.4 19.6
2015-Jan-20 22:00N 31°56' W 028°30'0 0.4 1029.3 19.6
2015-Jan-20 21:00N 31°56' W 028°29'1 0.8 1029.5 19.6
2015-Jan-20 20:00N 31°57' W 028°29'0 0.0 1029.5 19.6
2015-Jan-20 18:00N 31°57' W 028°29'1 1.0 1029.3 19.6
2015-Jan-20 17:00N 31°57' W 028°29'1 0.5 1029.1 19.6
2015-Jan-20 15:00N 31°58' W 028°29'0 0.0 1029.3 19.5
2015-Jan-20 12:00N 31°58' W 028°29'1 1.3 1031.4 19.5
2015-Jan-20 11:00N 31°58' W 028°28'0 0.0 1031.0 19.4
2015-Jan-20 10:00N 31°58' W 028°28'0 0.0 1030.5 19.3
2015-Jan-20 08:00N 31°58' W 028°28'0 0.5 1030.0 19.3
2015-Jan-20 07:00N 31°58' W 028°27'0 0.4 1029.8 19.3
2015-Jan-20 06:00N 31°58' W 028°27'0 0.0 1030.0 19.3
2015-Jan-20 05:00N 31°58' W 028°27'1 0.7 1030.5 19.3
2015-Jan-20 03:00N 31°59' W 028°28'0 0.1 1030.8 19.3
2015-Jan-19 23:00N 31°59' W 028°28'1 0.8 1031.1 19.3
2015-Jan-19 22:00N 31°58' W 028°27'0 0.0 1031.3 19.4
2015-Jan-19 19:00N 31°58' W 028°27'0 0.0 1031.4 19.4
2015-Jan-19 18:00N 31°58' W 028°27'1 0.4 1031.3 19.4
2015-Jan-19 15:00N 31°59' W 028°26'1 0.3 1031.3 19.4
2015-Jan-19 12:00N 31°60' W 028°25'1 0.8 1033.4 19.4
2015-Jan-19 11:00N 32°01' W 028°26'2 0.4 1033.1 19.4
2015-Jan-19 07:00N 32°00' W 028°24'0 0.0 1032.5 19.3
2015-Jan-19 06:00N 32°00' W 028°24'0 0.0 1032.4 19.3
2015-Jan-19 03:00N 32°00' W 028°24'1 1.4 1033.1 19.3
2015-Jan-19 02:00N 32°01' W 028°23'0 0.0 1033.3 19.3
2015-Jan-18 22:00N 32°01' W 028°23'1 0.7 1034.0 19.3
2015-Jan-18 21:00N 32°02' W 028°22'1 0.3 1034.0 19.3
2015-Jan-18 19:00N 32°02' W 028°22'1 0.7 1033.5 19.4
2015-Jan-18 18:00N 32°02' W 028°21'3 3.2 1033.3 19.4
2015-Jan-18 17:00N 32°04' W 028°18'0 0.0 1033.3 19.4
2015-Jan-18 15:00N 32°04' W 028°18'2 0.5 1033.5 19.4
2015-Jan-18 12:00N 32°05' W 028°17'0 0.0 1035.5 19.4
2015-Jan-18 11:00N 32°05' W 028°17'0 0.0 1035.0 19.4
2015-Jan-18 07:00N 32°05' W 028°17'0 0.0 1033.0 19.4
2015-Jan-18 06:00N 32°05' W 028°17'1 0.6 1033.0 19.4
2015-Jan-18 04:00N 32°04' W 028°16'3 0.4 1033.8 19.4
2015-Jan-17 22:00N 32°05' W 028°13'   1034.0 19.4
Track history (hours):
 
Tides and Currents Weather Stations Pressure Air Temp Water Temp Dewpoint Dewpoint Depression Visibility Wind Speed Wind Dir Waves Ship Positions

Drifting buoy 13569

Last reported at 2015-Jan-27 22:00 UTC. Time now 2015-Jan-28 04:19 UTC.
Position N 31°55' W 029°03'.

Barometer 1035.8 mb
Water temperature 19.3 ° C

Date/timePositionNaut miles runAvg speedWind from/ knotsBaromVisibWave heightAir tempDewpointWater temp
2015-Jan-27 22:00N 31°55' W 029°03'0 0.0 1035.8 19.3
2015-Jan-27 21:00N 31°55' W 029°03'1 0.8 1035.4 19.4
2015-Jan-27 20:00N 31°55' W 029°02'0 0.1 1034.8 19.4
2015-Jan-27 19:00N 31°55' W 029°02'0 0.0 1034.4 19.4
2015-Jan-27 18:00N 31°55' W 029°02'1 0.7 1034.4 19.4
2015-Jan-27 17:00N 31°54' W 029°02'0 0.0 1034.9 19.4
2015-Jan-27 15:00N 31°54' W 029°02'2 0.5 1035.3 19.4
2015-Jan-27 12:00N 31°54' W 029°00'0 0.4 1036.3 19.4
2015-Jan-27 11:00N 31°54' W 029°01'0 0.0 1035.5 19.4
2015-Jan-27 07:00N 31°54' W 029°01'0 0.0 1034.0 19.4
2015-Jan-27 05:00N 31°54' W 029°01'0 0.0 1034.1 19.4
2015-Jan-27 04:00N 31°54' W 029°01'1 0.2 1034.4 19.4
2015-Jan-26 23:00N 31°54' W 028°60'0 0.0 1033.9 19.4
2015-Jan-26 22:00N 31°54' W 028°60'1 0.3 1033.5 19.4
2015-Jan-26 19:00N 31°54' W 028°58'1 1.3 1031.6 19.5
2015-Jan-26 18:00N 31°53' W 028°60'0 0.3 1031.4 19.5
2015-Jan-26 17:00N 31°53' W 028°59'1 0.3 1031.1 19.5
2015-Jan-26 15:00N 31°53' W 028°59'0 0.0 1031.1 19.5
2015-Jan-26 14:00N 31°53' W 028°59'1 0.2 1031.9 19.5
2015-Jan-26 11:00N 31°53' W 028°59'1 0.2 1032.0 19.4
2015-Jan-26 08:00N 31°52' W 028°59'0 0.0 1030.6 19.5
2015-Jan-26 07:00N 31°52' W 028°59'0 0.1 1030.3 19.5
2015-Jan-26 06:00N 31°52' W 028°59'2 1.0 1030.0 19.5
2015-Jan-26 04:00N 31°50' W 028°58'0 0.0 1030.0 19.5
2015-Jan-26 03:00N 31°50' W 028°58'0 0.1 1030.0 19.5
2015-Jan-25 20:00N 31°50' W 028°57'0 0.4 1028.3 19.6
2015-Jan-25 19:00N 31°50' W 028°57'0 0.0 1027.6 19.6
2015-Jan-25 18:00N 31°50' W 028°57'1 1.0 1027.3 19.7
2015-Jan-25 17:00N 31°49' W 028°56'1 0.1 1027.1 19.7
2015-Jan-25 12:00N 31°49' W 028°56'1 1.1 1029.0 19.6
2015-Jan-25 11:00N 31°50' W 028°55'0 0.0 1028.5 19.6
2015-Jan-25 10:00N 31°50' W 028°55'0 0.1 1028.0 19.6
2015-Jan-25 07:00N 31°50' W 028°55'0 0.1 1027.0 19.6
2015-Jan-25 06:00N 31°50' W 028°55'0 0.1 1026.5 19.6
2015-Jan-25 05:00N 31°50' W 028°55'1 0.9 1026.5 19.6
2015-Jan-25 04:00N 31°50' W 028°54'1 0.9 1026.9 19.6
2015-Jan-25 03:00N 31°50' W 028°55'1 0.9 1027.0 19.6
2015-Jan-25 02:00N 31°50' W 028°54'1 0.3 1027.3 19.6
2015-Jan-24 23:00N 31°51' W 028°53'1 0.7 1028.3 19.6
2015-Jan-24 22:00N 31°52' W 028°53'0 0.2 1028.4 19.6
2015-Jan-24 20:00N 31°52' W 028°53'0 0.0 1027.3 19.6
2015-Jan-24 19:00N 31°52' W 028°53'0 0.3 1026.9 19.6
2015-Jan-24 18:00N 31°52' W 028°53'0 0.0 1026.6 19.6
2015-Jan-24 17:00N 31°52' W 028°53'1 0.7 1026.5 19.7
2015-Jan-24 16:00N 31°52' W 028°52'1 0.2 1026.5 19.7
2015-Jan-24 12:00N 31°53' W 028°51'0 0.3 1029.1 19.6
2015-Jan-24 11:00N 31°53' W 028°52'2 0.4 1029.0 19.6
2015-Jan-24 07:00N 31°54' W 028°50'1 0.9 1028.3 19.4
2015-Jan-24 06:00N 31°54' W 028°49'2 0.8 1028.1 19.4
2015-Jan-24 04:00N 31°53' W 028°47'0 0.0 1028.8 19.4
2015-Jan-24 03:00N 31°53' W 028°47'0 0.0 1029.0 19.4
2015-Jan-24 02:00N 31°53' W 028°47'0 0.0 1029.8 19.4
2015-Jan-24 00:00N 31°53' W 028°47'1 0.5 1030.6 19.4
2015-Jan-23 23:00N 31°54' W 028°46'1 0.6 1030.9 19.5
2015-Jan-23 22:00N 31°54' W 028°46'1 0.2 1030.9 19.5
2015-Jan-23 16:00N 31°54' W 028°44'2 0.4 1029.8 19.5
2015-Jan-23 12:00N 31°53' W 028°42'0 0.0 1032.3 19.4
2015-Jan-23 11:00N 31°53' W 028°42'2 0.6 1032.3 19.4
2015-Jan-23 08:00N 31°54' W 028°40'0 0.2 1031.5 19.4
2015-Jan-23 06:00N 31°54' W 028°40'0 0.0 1031.0 19.4
2015-Jan-23 05:00N 31°54' W 028°40'0 0.1 1031.1 19.4
2015-Jan-23 04:00N 31°55' W 028°40'1 1.4 1031.6 19.4
2015-Jan-23 03:00N 31°55' W 028°39'0 0.0 1031.9 19.4
2015-Jan-23 00:00N 31°55' W 028°39'1 0.5 1032.4 19.5
2015-Jan-22 22:00N 31°55' W 028°38'0 0.1 1032.3 19.5
2015-Jan-22 19:00N 31°55' W 028°38'0 0.0 1031.0 19.5
2015-Jan-22 18:00N 31°55' W 028°38'0 0.1 1030.8 19.5
2015-Jan-22 16:00N 31°55' W 028°37'1 0.3 1030.9 19.5
2015-Jan-22 14:00N 31°55' W 028°37'2 0.6 1032.0 19.5
2015-Jan-22 11:00N 31°54' W 028°35'0 0.0 1032.6 19.4
2015-Jan-22 08:00N 31°54' W 028°35'0 0.0 1031.9 19.4
2015-Jan-22 07:00N 31°54' W 028°35'0 0.1 1031.5 19.4
2015-Jan-22 06:00N 31°54' W 028°35'0 0.4 1031.6 19.4
2015-Jan-22 05:00N 31°55' W 028°35'1 0.6 1031.5 19.4
2015-Jan-22 03:00N 31°54' W 028°34'1 1.1 1031.4 19.4
2015-Jan-22 02:00N 31°54' W 028°35'2 0.7 1031.3 19.4
2015-Jan-21 23:00N 31°53' W 028°33'0 0.0 1031.5 19.4
2015-Jan-21 21:00N 31°53' W 028°33'0 0.2 1030.8 19.5
2015-Jan-21 19:00N 31°53' W 028°32'0 0.4 1029.8 19.6
2015-Jan-21 18:00N 31°53' W 028°32'0 0.0 1029.5 19.6
2015-Jan-21 16:00N 31°53' W 028°32'0 0.4 1029.1 19.6
2015-Jan-21 15:00N 31°53' W 028°33'2 0.4 1029.3 19.6
2015-Jan-21 11:00N 31°53' W 028°31'1 0.1 1030.5 19.6
2015-Jan-21 07:00N 31°53' W 028°30'1 1.0 1029.0 19.6
2015-Jan-21 06:00N 31°54' W 028°30'1 1.3 1028.5 19.6
2015-Jan-21 05:00N 31°55' W 028°31'0 0.0 1028.5 19.6
2015-Jan-21 03:00N 31°55' W 028°31'1 0.1 1028.9 19.6
2015-Jan-20 23:00N 31°56' W 028°30'0 0.3 1029.4 19.6
2015-Jan-20 22:00N 31°56' W 028°30'0 0.4 1029.3 19.6
2015-Jan-20 21:00N 31°56' W 028°29'1 0.8 1029.5 19.6
2015-Jan-20 20:00N 31°57' W 028°29'0 0.0 1029.5 19.6
2015-Jan-20 18:00N 31°57' W 028°29'1 1.0 1029.3 19.6
2015-Jan-20 17:00N 31°57' W 028°29'1 0.5 1029.1 19.6
2015-Jan-20 15:00N 31°58' W 028°29'0 0.0 1029.3 19.5
2015-Jan-20 12:00N 31°58' W 028°29'1 1.3 1031.4 19.5
2015-Jan-20 11:00N 31°58' W 028°28'0 0.0 1031.0 19.4
2015-Jan-20 10:00N 31°58' W 028°28'0 0.0 1030.5 19.3
2015-Jan-20 08:00N 31°58' W 028°28'0 0.5 1030.0 19.3
2015-Jan-20 07:00N 31°58' W 028°27'0 0.4 1029.8 19.3
2015-Jan-20 06:00N 31°58' W 028°27'0 0.0 1030.0 19.3
2015-Jan-20 05:00N 31°58' W 028°27'1 0.7 1030.5 19.3
2015-Jan-20 03:00N 31°59' W 028°28'0 0.1 1030.8 19.3
2015-Jan-19 23:00N 31°59' W 028°28'1 0.8 1031.1 19.3
2015-Jan-19 22:00N 31°58' W 028°27'0 0.0 1031.3 19.4
2015-Jan-19 19:00N 31°58' W 028°27'0 0.0 1031.4 19.4
2015-Jan-19 18:00N 31°58' W 028°27'1 0.4 1031.3 19.4
2015-Jan-19 15:00N 31°59' W 028°26'1 0.3 1031.3 19.4
2015-Jan-19 12:00N 31°60' W 028°25'1 0.8 1033.4 19.4
2015-Jan-19 11:00N 32°01' W 028°26'2 0.4 1033.1 19.4
2015-Jan-19 07:00N 32°00' W 028°24'0 0.0 1032.5 19.3
2015-Jan-19 06:00N 32°00' W 028°24'0 0.0 1032.4 19.3
2015-Jan-19 03:00N 32°00' W 028°24'1 1.4 1033.1 19.3
2015-Jan-19 02:00N 32°01' W 028°23'0 0.0 1033.3 19.3
2015-Jan-18 22:00N 32°01' W 028°23'1 0.7 1034.0 19.3
2015-Jan-18 21:00N 32°02' W 028°22'1 0.3 1034.0 19.3
2015-Jan-18 19:00N 32°02' W 028°22'1 0.7 1033.5 19.4
2015-Jan-18 18:00N 32°02' W 028°21'3 3.2 1033.3 19.4
2015-Jan-18 17:00N 32°04' W 028°18'0 0.0 1033.3 19.4
2015-Jan-18 15:00N 32°04' W 028°18'2 0.5 1033.5 19.4
2015-Jan-18 12:00N 32°05' W 028°17'0 0.0 1035.5 19.4
2015-Jan-18 11:00N 32°05' W 028°17'0 0.0 1035.0 19.4
2015-Jan-18 07:00N 32°05' W 028°17'0 0.0 1033.0 19.4
2015-Jan-18 06:00N 32°05' W 028°17'1 0.6 1033.0 19.4
2015-Jan-18 04:00N 32°04' W 028°16'3 0.4 1033.8 19.4
2015-Jan-17 22:00N 32°05' W 028°13'   1034.0 19.4

Dump ship's entire track history